Ohlman, IL (62076)

1:49 AM CDT on September 20, 2014 (GMT -0500)
Pana | Change Station
CLOSE
Current Station
Personal Weather Station
Location: Pana, IL
Elevation: 692 ft
Nearby Weather Stations

Elev 692 ft 39.39 °N, 89.08 °W | Updated 10 seconds ago

Clear
Clear
58.6 °F
Feels Like 58.6 °F
N
0.0
Wind Variable Wind from SW
Gusts 1.0 mph

Today
High -- | Low -- °F
--% Chance of Precip.
Yesterday
High -- | Low -- °F
Precip. -- in
6:42 AM 6:57 PM
Waning Crescent, 14% visible
Pressure 29.98 in
Visibility 10.0 miles
Clouds Clear
Dew Point 55 °F
Humidity 89%
Rainfall 0.00 in
Snow Depth Not available.
UV 0 out of 12
Pollen 6.20 out of 12
Air Quality Not available.
Flu Activity Not available.
METAR KTAZ 200635Z AUTO 18007KT 10SM CLR 14/12 A2998 RMK AO2

More Conditions Fewer Conditions

Pressure 29.98 in
Visibility 10.0 miles
Clouds Clear
Dew Point 55 °F
Humidity 89%
Rainfall 0.00 in
Snow Depth Not available.
UV 0 out of 12
Pollen 6.20 out of 12
Air Quality Not available.
Flu Activity Not available.
METAR KTAZ 200635Z AUTO 18007KT 10SM CLR 14/12 A2998 RMK AO2

More Conditions Fewer Conditions

10-Day Weather Forecast

Almanac

Astronomy

Sep. 20, 2014 Rise Set
Actual Time 6:42 AM CDT 6:57 PM CDT
Civil Twilight 6:15 AM CDT 7:23 PM CDT
Nautical Twilight 5:44 AM CDT 7:55 PM CDT
Astronomical Twilight 5:12 AM CDT 8:27 PM CDT
Moon 3:22 AM CDT 4:59 PM CDT
Length of Visible Light 13h 08m
Length of Day
12h 14m
Tomorrow will be 2m 32s shorter.
Waning Crescent, 14% of the Moon is Illuminated
Today
Waning Crescent
Sep 24
New
Oct 1
First Quarter
Oct 8
Full
Oct 15
Last Quarter

Today's Extremes

State Highs State Lows

Community

WunderPhotos

Upload Photos

1,754,779 photos uploaded!

WunderBlogs® & News

Nearby

Snow Depth

Station Depth Elevation
No new snow has been reported.

Earthquake Activity

City Distance Mag. Time & Date
No recent earthquake activity has been reported nearby.
Minimum magnitude displayed is 2.5.

Coastal Water Temperatures

Place Temperature
No Stations Reporting

Nearby Weather Stations